Startpagina
METAR-TAF:

METAR-TAF

Vliegvelden :

Aeropuerto de Almería

Almería, Spanje

breedte: 36-51N, lengte: 002-23W, hoogte: 15 m

Actueel weer

Dit bericht is 12 minuten geleden gemaakt, om 07:30 UTC
Wind 8 kt uit het noorden
Temperatuur 24°C
Vochtigheid 36%
Druk 1017 hPa
Zicht 10 km of meer
geen wolken onder 1500 m en geen cumulonimbus

METAR: LEAM 230730Z 36008KT CAVOK 24/08 Q1017

Tijdstip: 09:42 (07:42 UTC)

Verwachting

Dit bericht is 5 uur en het 42 minuten geleden gemaakt, om 02:00 UTC
Verwachting geldig van 23 om 03 UTC tot 24 om 03 UTC
Wind 10 kt uit het noorden
Zicht 10 km of meer
geen wolken onder 1500 m en geen cumulonimbus
Wijzigt naar
van 23 om 08 UTC tot 23 om 10 UTC
Wind 10 kt uit het zuidzuidwesten
Wijzigt naar
van 23 om 16 UTC tot 23 om 18 UTC
Wind 3 kt uit variabele richting

TAF: LEAM 230200Z 2303/2403 35010KT CAVOK TX26/2312Z TN17/2305Z BECMG 2308/2310 20010KT BECMG 2316/2318 VRB03KT

Waarnemingen en weersverwachtingen van meer dan 4000 vliegvelden (METAR en TAF).

De beschikbare stations zijn de gele en rode punten op de kaart.

Ga met uw muis naar het station om de naam te zien.

Klik dan om waarnemingen en weersverwachtingen te zien.

kaart wijzigen: klik op de groene knoppen met een zwart kruis om in te zoomen, op de groene knop met een streepje om uit te zoomen of op de groene pijlen voor aangrenzende kaarten.


METAR-TAF: